Terminal Aerodrome Forecast
Issued by NWS Wichita, KS

Home | Current Version | Previous Version | Graphics & Text | Print | Product List | Glossary On
Versions: 1 2 3 4 5 6 7 8 9 10 11 12 13 14 15 16
000
FTUS43 KICT 120500 RRA
TAFICT
TAF
KICT 120546Z 1206/1306 05015KT P6SM OVC020
     FM121600 36015KT 5SM -RA OVC008
     FM122100 36015G20KT P6SM OVC020=

USA.gov is the U.S. government's official web portal to all federal, state and local government web resources and services.